sensor_id;sensor_type;location;lat;lon;timestamp;P1;durP1;ratioP1;P2;durP2;ratioP2
36817;SDS011;22761;51.542;16.450;2022-12-07T00:04:05;5.87;;;3.47;;
36817;SDS011;22761;51.542;16.450;2022-12-07T00:09:05;4.33;;;3.00;;
36817;SDS011;22761;51.542;16.450;2022-12-07T00:11:35;5.55;;;3.40;;
36817;SDS011;22761;51.542;16.450;2022-12-07T00:14:03;4.77;;;3.30;;
36817;SDS011;22761;51.542;16.450;2022-12-07T00:16:33;4.80;;;3.27;;
36817;SDS011;22761;51.542;16.450;2022-12-07T00:19:01;4.63;;;3.33;;
36817;SDS011;22761;51.542;16.450;2022-12-07T00:21:31;4.90;;;3.27;;
36817;SDS011;22761;51.542;16.450;2022-12-07T00:24:01;5.20;;;3.30;;
36817;SDS011;22761;51.542;16.450;2022-12-07T00:26:31;5.27;;;3.30;;
36817;SDS011;22761;51.542;16.450;2022-12-07T00:29:07;4.50;;;3.07;;
36817;SDS011;22761;51.542;16.450;2022-12-07T00:31:38;4.63;;;2.87;;
36817;SDS011;22761;51.542;16.450;2022-12-07T00:34:05;3.70;;;2.97;;
36817;SDS011;22761;51.542;16.450;2022-12-07T00:36:33;4.67;;;3.07;;
36817;SDS011;22761;51.542;16.450;2022-12-07T00:39:01;4.90;;;2.70;;
36817;SDS011;22761;51.542;16.450;2022-12-07T00:41:29;4.27;;;3.03;;
36817;SDS011;22761;51.542;16.450;2022-12-07T00:43:57;3.67;;;2.43;;
36817;SDS011;22761;51.542;16.450;2022-12-07T00:46:24;3.57;;;2.87;;
36817;SDS011;22761;51.542;16.450;2022-12-07T00:48:52;4.97;;;2.77;;
36817;SDS011;22761;51.542;16.450;2022-12-07T00:51:21;3.40;;;2.27;;
36817;SDS011;22761;51.542;16.450;2022-12-07T00:53:50;4.35;;;2.40;;
36817;SDS011;22761;51.542;16.450;2022-12-07T00:56:25;3.00;;;2.43;;
36817;SDS011;22761;51.542;16.450;2022-12-07T00:58:54;3.23;;;2.27;;
36817;SDS011;22761;51.542;16.450;2022-12-07T01:01:24;3.70;;;1.90;;
36817;SDS011;22761;51.542;16.450;2022-12-07T01:03:53;4.60;;;2.72;;
36817;SDS011;22761;51.542;16.450;2022-12-07T01:06:21;2.57;;;1.80;;
36817;SDS011;22761;51.542;16.450;2022-12-07T01:08:50;2.83;;;1.90;;
36817;SDS011;22761;51.542;16.450;2022-12-07T01:11:19;2.63;;;2.03;;
36817;SDS011;22761;51.542;16.450;2022-12-07T01:13:50;2.93;;;2.20;;
36817;SDS011;22761;51.542;16.450;2022-12-07T01:16:19;3.13;;;2.10;;
36817;SDS011;22761;51.542;16.450;2022-12-07T01:18:48;3.20;;;2.17;;
36817;SDS011;22761;51.542;16.450;2022-12-07T01:21:21;2.10;;;1.80;;
36817;SDS011;22761;51.542;16.450;2022-12-07T01:23:51;2.50;;;1.60;;
36817;SDS011;22761;51.542;16.450;2022-12-07T01:26:20;2.67;;;1.67;;
36817;SDS011;22761;51.542;16.450;2022-12-07T01:31:18;1.97;;;1.70;;
36817;SDS011;22761;51.542;16.450;2022-12-07T01:33:48;2.10;;;1.40;;
36817;SDS011;22761;51.542;16.450;2022-12-07T01:36:23;3.17;;;1.70;;
36817;SDS011;22761;51.542;16.450;2022-12-07T01:39:00;2.55;;;1.62;;
36817;SDS011;22761;51.542;16.450;2022-12-07T01:41:32;2.80;;;1.30;;
36817;SDS011;22761;51.542;16.450;2022-12-07T01:46:58;2.53;;;1.40;;
36817;SDS011;22761;51.542;16.450;2022-12-07T01:52:08;3.47;;;1.20;;
36817;SDS011;22761;51.542;16.450;2022-12-07T01:54:36;1.70;;;1.03;;
36817;SDS011;22761;51.542;16.450;2022-12-07T01:57:03;2.03;;;1.00;;
36817;SDS011;22761;51.542;16.450;2022-12-07T01:59:33;1.63;;;1.13;;
36817;SDS011;22761;51.542;16.450;2022-12-07T02:02:01;1.50;;;1.10;;
36817;SDS011;22761;51.542;16.450;2022-12-07T02:04:31;1.90;;;1.27;;
36817;SDS011;22761;51.542;16.450;2022-12-07T02:06:58;2.40;;;1.37;;
36817;SDS011;22761;51.542;16.450;2022-12-07T02:09:25;1.53;;;1.17;;
36817;SDS011;22761;51.542;16.450;2022-12-07T02:11:53;1.27;;;1.00;;
36817;SDS011;22761;51.542;16.450;2022-12-07T02:14:21;1.70;;;1.07;;
36817;SDS011;22761;51.542;16.450;2022-12-07T02:31:08;1.37;;;1.00;;
36817;SDS011;22761;51.542;16.450;2022-12-07T02:33:43;2.57;;;1.10;;
36817;SDS011;22761;51.542;16.450;2022-12-07T02:36:24;2.03;;;1.13;;
36817;SDS011;22761;51.542;16.450;2022-12-07T02:39:13;1.70;;;1.25;;
36817;SDS011;22761;51.542;16.450;2022-12-07T02:41:56;1.90;;;1.20;;
36817;SDS011;22761;51.542;16.450;2022-12-07T02:44:28;1.93;;;1.33;;
36817;SDS011;22761;51.542;16.450;2022-12-07T02:46:59;1.40;;;1.20;;
36817;SDS011;22761;51.542;16.450;2022-12-07T02:49:32;2.43;;;1.67;;
36817;SDS011;22761;51.542;16.450;2022-12-07T02:51:59;2.03;;;1.30;;
36817;SDS011;22761;51.542;16.450;2022-12-07T02:54:26;1.60;;;1.23;;
36817;SDS011;22761;51.542;16.450;2022-12-07T02:57:00;1.80;;;1.40;;
36817;SDS011;22761;51.542;16.450;2022-12-07T03:00:09;1.20;;;1.07;;
36817;SDS011;22761;51.542;16.450;2022-12-07T03:08:17;1.90;;;1.10;;
36817;SDS011;22761;51.542;16.450;2022-12-07T03:11:10;3.30;;;1.17;;
36817;SDS011;22761;51.542;16.450;2022-12-07T03:13:49;1.83;;;1.20;;
36817;SDS011;22761;51.542;16.450;2022-12-07T03:16:25;1.10;;;1.00;;
36817;SDS011;22761;51.542;16.450;2022-12-07T03:19:29;1.80;;;1.10;;
36817;SDS011;22761;51.542;16.450;2022-12-07T03:21:40;1.13;;;0.90;;
36817;SDS011;22761;51.542;16.450;2022-12-07T03:24:19;1.23;;;0.90;;
36817;SDS011;22761;51.542;16.450;2022-12-07T03:26:59;0.93;;;0.70;;
36817;SDS011;22761;51.542;16.450;2022-12-07T03:29:51;1.10;;;0.80;;
36817;SDS011;22761;51.542;16.450;2022-12-07T03:32:35;0.73;;;0.63;;
36817;SDS011;22761;51.542;16.450;2022-12-07T03:37:57;0.90;;;0.70;;
36817;SDS011;22761;51.542;16.450;2022-12-07T03:40:35;0.70;;;0.70;;
36817;SDS011;22761;51.542;16.450;2022-12-07T03:43:16;1.63;;;0.90;;
36817;SDS011;22761;51.542;16.450;2022-12-07T03:45:50;0.93;;;0.80;;
36817;SDS011;22761;51.542;16.450;2022-12-07T03:48:37;1.30;;;1.00;;
36817;SDS011;22761;51.542;16.450;2022-12-07T03:51:13;1.10;;;0.70;;
36817;SDS011;22761;51.542;16.450;2022-12-07T03:53:54;1.10;;;1.00;;
36817;SDS011;22761;51.542;16.450;2022-12-07T03:56:27;1.20;;;0.90;;
36817;SDS011;22761;51.542;16.450;2022-12-07T03:58:56;1.10;;;1.00;;
36817;SDS011;22761;51.542;16.450;2022-12-07T04:01:23;1.33;;;0.83;;
36817;SDS011;22761;51.542;16.450;2022-12-07T04:03:51;1.07;;;0.80;;
36817;SDS011;22761;51.542;16.450;2022-12-07T04:06:18;1.00;;;0.80;;
36817;SDS011;22761;51.542;16.450;2022-12-07T04:08:45;1.03;;;0.80;;
36817;SDS011;22761;51.542;16.450;2022-12-07T04:11:12;1.07;;;0.80;;
36817;SDS011;22761;51.542;16.450;2022-12-07T04:13:39;1.00;;;0.83;;
36817;SDS011;22761;51.542;16.450;2022-12-07T04:16:25;1.33;;;0.80;;
36817;SDS011;22761;51.542;16.450;2022-12-07T04:18:52;1.13;;;0.80;;
36817;SDS011;22761;51.542;16.450;2022-12-07T04:21:19;1.00;;;0.70;;
36817;SDS011;22761;51.542;16.450;2022-12-07T04:23:46;0.70;;;0.70;;
36817;SDS011;22761;51.542;16.450;2022-12-07T04:26:13;0.93;;;0.77;;
36817;SDS011;22761;51.542;16.450;2022-12-07T04:28:41;0.77;;;0.70;;
36817;SDS011;22761;51.542;16.450;2022-12-07T04:31:09;1.40;;;0.90;;
36817;SDS011;22761;51.542;16.450;2022-12-07T04:33:36;2.17;;;1.20;;
36817;SDS011;22761;51.542;16.450;2022-12-07T04:36:03;1.87;;;1.27;;
36817;SDS011;22761;51.542;16.450;2022-12-07T04:38:32;2.25;;;1.42;;
36817;SDS011;22761;51.542;16.450;2022-12-07T04:41:04;3.03;;;1.70;;
36817;SDS011;22761;51.542;16.450;2022-12-07T04:43:32;4.10;;;2.07;;
36817;SDS011;22761;51.542;16.450;2022-12-07T04:46:00;5.03;;;2.80;;
36817;SDS011;22761;51.542;16.450;2022-12-07T04:48:28;4.90;;;3.40;;
36817;SDS011;22761;51.542;16.450;2022-12-07T04:50:55;5.63;;;3.40;;
36817;SDS011;22761;51.542;16.450;2022-12-07T04:53:22;7.47;;;4.40;;
36817;SDS011;22761;51.542;16.450;2022-12-07T04:55:49;7.07;;;4.30;;
36817;SDS011;22761;51.542;16.450;2022-12-07T04:58:16;5.87;;;3.80;;
36817;SDS011;22761;51.542;16.450;2022-12-07T05:00:43;6.73;;;4.23;;
36817;SDS011;22761;51.542;16.450;2022-12-07T05:03:11;6.50;;;4.63;;
36817;SDS011;22761;51.542;16.450;2022-12-07T05:05:39;6.53;;;4.40;;
36817;SDS011;22761;51.542;16.450;2022-12-07T05:08:07;5.78;;;4.28;;
36817;SDS011;22761;51.542;16.450;2022-12-07T05:10:34;5.90;;;4.20;;
36817;SDS011;22761;51.542;16.450;2022-12-07T05:13:01;8.03;;;4.30;;
36817;SDS011;22761;51.542;16.450;2022-12-07T05:15:28;6.70;;;4.50;;
36817;SDS011;22761;51.542;16.450;2022-12-07T05:17:55;6.80;;;4.53;;
36817;SDS011;22761;51.542;16.450;2022-12-07T05:20:22;6.27;;;4.60;;
36817;SDS011;22761;51.542;16.450;2022-12-07T05:22:50;6.53;;;4.10;;
36817;SDS011;22761;51.542;16.450;2022-12-07T05:25:17;7.60;;;4.97;;
36817;SDS011;22761;51.542;16.450;2022-12-07T05:27:44;6.33;;;4.50;;
36817;SDS011;22761;51.542;16.450;2022-12-07T05:30:11;5.80;;;4.43;;
36817;SDS011;22761;51.542;16.450;2022-12-07T05:32:39;6.63;;;4.90;;
36817;SDS011;22761;51.542;16.450;2022-12-07T05:35:07;7.47;;;4.80;;
36817;SDS011;22761;51.542;16.450;2022-12-07T05:37:34;7.00;;;4.67;;
36817;SDS011;22761;51.542;16.450;2022-12-07T05:40:02;5.87;;;4.27;;
36817;SDS011;22761;51.542;16.450;2022-12-07T05:42:30;7.60;;;4.53;;
36817;SDS011;22761;51.542;16.450;2022-12-07T05:44:57;6.23;;;4.33;;
36817;SDS011;22761;51.542;16.450;2022-12-07T05:47:25;7.17;;;5.20;;
36817;SDS011;22761;51.542;16.450;2022-12-07T05:49:52;7.43;;;4.63;;
36817;SDS011;22761;51.542;16.450;2022-12-07T05:52:19;6.50;;;4.50;;
36817;SDS011;22761;51.542;16.450;2022-12-07T05:54:47;6.50;;;4.47;;
36817;SDS011;22761;51.542;16.450;2022-12-07T05:57:15;5.87;;;4.43;;
36817;SDS011;22761;51.542;16.450;2022-12-07T05:59:42;7.00;;;4.20;;
36817;SDS011;22761;51.542;16.450;2022-12-07T06:02:10;7.23;;;4.43;;
36817;SDS011;22761;51.542;16.450;2022-12-07T06:04:41;7.27;;;4.70;;
36817;SDS011;22761;51.542;16.450;2022-12-07T06:07:12;5.03;;;3.87;;
36817;SDS011;22761;51.542;16.450;2022-12-07T06:09:41;6.03;;;4.00;;
36817;SDS011;22761;51.542;16.450;2022-12-07T06:12:13;4.53;;;3.33;;
36817;SDS011;22761;51.542;16.450;2022-12-07T06:14:57;5.10;;;3.50;;
36817;SDS011;22761;51.542;16.450;2022-12-07T06:17:24;4.20;;;3.43;;
36817;SDS011;22761;51.542;16.450;2022-12-07T06:19:51;5.47;;;3.17;;
36817;SDS011;22761;51.542;16.450;2022-12-07T06:22:18;4.93;;;2.83;;
36817;SDS011;22761;51.542;16.450;2022-12-07T06:24:45;2.87;;;2.20;;
36817;SDS011;22761;51.542;16.450;2022-12-07T06:27:13;4.43;;;2.90;;
36817;SDS011;22761;51.542;16.450;2022-12-07T06:29:40;5.63;;;3.00;;
36817;SDS011;22761;51.542;16.450;2022-12-07T06:32:07;5.27;;;2.33;;
36817;SDS011;22761;51.542;16.450;2022-12-07T06:34:35;6.07;;;3.03;;
36817;SDS011;22761;51.542;16.450;2022-12-07T06:37:02;4.60;;;2.47;;
36817;SDS011;22761;51.542;16.450;2022-12-07T06:39:30;4.17;;;1.90;;
36817;SDS011;22761;51.542;16.450;2022-12-07T06:41:57;3.50;;;2.03;;
36817;SDS011;22761;51.542;16.450;2022-12-07T06:44:24;3.73;;;1.37;;
36817;SDS011;22761;51.542;16.450;2022-12-07T06:46:52;2.33;;;1.60;;
36817;SDS011;22761;51.542;16.450;2022-12-07T06:49:19;2.50;;;1.60;;
36817;SDS011;22761;51.542;16.450;2022-12-07T06:51:46;1.90;;;1.53;;
36817;SDS011;22761;51.542;16.450;2022-12-07T06:54:14;2.50;;;1.70;;
36817;SDS011;22761;51.542;16.450;2022-12-07T06:56:42;2.87;;;1.40;;
36817;SDS011;22761;51.542;16.450;2022-12-07T06:59:10;1.67;;;1.30;;
36817;SDS011;22761;51.542;16.450;2022-12-07T07:01:37;2.87;;;1.80;;
36817;SDS011;22761;51.542;16.450;2022-12-07T07:04:04;2.33;;;1.40;;
36817;SDS011;22761;51.542;16.450;2022-12-07T07:09:50;3.67;;;1.83;;
36817;SDS011;22761;51.542;16.450;2022-12-07T07:12:18;2.57;;;1.80;;
36817;SDS011;22761;51.542;16.450;2022-12-07T07:14:48;2.47;;;1.83;;
36817;SDS011;22761;51.542;16.450;2022-12-07T07:17:15;5.03;;;2.33;;
36817;SDS011;22761;51.542;16.450;2022-12-07T07:19:42;5.57;;;2.40;;
36817;SDS011;22761;51.542;16.450;2022-12-07T07:22:09;3.43;;;2.73;;
36817;SDS011;22761;51.542;16.450;2022-12-07T07:24:36;6.47;;;3.07;;
36817;SDS011;22761;51.542;16.450;2022-12-07T07:27:03;5.70;;;2.90;;
36817;SDS011;22761;51.542;16.450;2022-12-07T07:29:30;7.13;;;3.00;;
36817;SDS011;22761;51.542;16.450;2022-12-07T07:31:57;4.90;;;3.27;;
36817;SDS011;22761;51.542;16.450;2022-12-07T07:34:24;6.50;;;3.50;;
36817;SDS011;22761;51.542;16.450;2022-12-07T07:36:51;8.90;;;4.00;;
36817;SDS011;22761;51.542;16.450;2022-12-07T07:39:18;6.90;;;4.10;;
36817;SDS011;22761;51.542;16.450;2022-12-07T07:41:46;8.83;;;4.70;;
36817;SDS011;22761;51.542;16.450;2022-12-07T07:44:13;9.67;;;5.03;;
36817;SDS011;22761;51.542;16.450;2022-12-07T07:46:40;13.03;;;4.93;;
36817;SDS011;22761;51.542;16.450;2022-12-07T07:49:08;8.67;;;5.07;;
36817;SDS011;22761;51.542;16.450;2022-12-07T07:51:36;7.83;;;4.93;;
36817;SDS011;22761;51.542;16.450;2022-12-07T07:54:03;8.70;;;5.30;;
36817;SDS011;22761;51.542;16.450;2022-12-07T07:56:31;7.70;;;5.43;;
36817;SDS011;22761;51.542;16.450;2022-12-07T07:58:58;8.27;;;5.50;;
36817;SDS011;22761;51.542;16.450;2022-12-07T08:01:25;10.00;;;6.30;;
36817;SDS011;22761;51.542;16.450;2022-12-07T08:03:52;12.03;;;7.17;;
36817;SDS011;22761;51.542;16.450;2022-12-07T08:06:19;11.17;;;7.27;;
36817;SDS011;22761;51.542;16.450;2022-12-07T08:08:46;11.50;;;7.03;;
36817;SDS011;22761;51.542;16.450;2022-12-07T08:11:13;11.90;;;7.00;;
36817;SDS011;22761;51.542;16.450;2022-12-07T08:13:40;11.97;;;7.80;;
36817;SDS011;22761;51.542;16.450;2022-12-07T08:16:08;10.63;;;7.50;;
36817;SDS011;22761;51.542;16.450;2022-12-07T08:18:37;11.43;;;6.73;;
36817;SDS011;22761;51.542;16.450;2022-12-07T08:21:06;12.03;;;7.77;;
36817;SDS011;22761;51.542;16.450;2022-12-07T08:23:38;12.23;;;7.93;;
36817;SDS011;22761;51.542;16.450;2022-12-07T08:26:07;11.40;;;7.87;;
36817;SDS011;22761;51.542;16.450;2022-12-07T08:28:40;11.87;;;7.00;;
36817;SDS011;22761;51.542;16.450;2022-12-07T08:31:10;12.87;;;8.10;;
36817;SDS011;22761;51.542;16.450;2022-12-07T08:33:40;13.40;;;8.00;;
36817;SDS011;22761;51.542;16.450;2022-12-07T08:36:09;14.10;;;7.60;;
36817;SDS011;22761;51.542;16.450;2022-12-07T08:38:38;13.10;;;7.72;;
36817;SDS011;22761;51.542;16.450;2022-12-07T08:41:07;12.83;;;8.70;;
36817;SDS011;22761;51.542;16.450;2022-12-07T08:43:35;13.33;;;8.17;;
36817;SDS011;22761;51.542;16.450;2022-12-07T08:48:48;14.07;;;7.57;;
36817;SDS011;22761;51.542;16.450;2022-12-07T08:51:25;12.23;;;8.67;;
36817;SDS011;22761;51.542;16.450;2022-12-07T08:53:52;13.13;;;8.00;;
36817;SDS011;22761;51.542;16.450;2022-12-07T08:56:22;11.30;;;7.57;;
36817;SDS011;22761;51.542;16.450;2022-12-07T08:58:49;12.93;;;8.33;;
36817;SDS011;22761;51.542;16.450;2022-12-07T09:01:18;15.23;;;9.10;;
36817;SDS011;22761;51.542;16.450;2022-12-07T09:03:45;13.03;;;8.20;;
36817;SDS011;22761;51.542;16.450;2022-12-07T09:06:12;13.20;;;7.63;;
36817;SDS011;22761;51.542;16.450;2022-12-07T09:08:40;13.63;;;8.57;;
36817;SDS011;22761;51.542;16.450;2022-12-07T09:11:11;15.63;;;9.27;;
36817;SDS011;22761;51.542;16.450;2022-12-07T09:13:38;16.77;;;8.23;;
36817;SDS011;22761;51.542;16.450;2022-12-07T09:16:06;15.40;;;8.77;;
36817;SDS011;22761;51.542;16.450;2022-12-07T09:18:33;15.67;;;9.70;;
36817;SDS011;22761;51.542;16.450;2022-12-07T09:21:00;12.13;;;8.67;;
36817;SDS011;22761;51.542;16.450;2022-12-07T09:23:27;16.30;;;9.60;;
36817;SDS011;22761;51.542;16.450;2022-12-07T09:25:54;15.47;;;9.57;;
36817;SDS011;22761;51.542;16.450;2022-12-07T09:28:23;13.33;;;8.70;;
36817;SDS011;22761;51.542;16.450;2022-12-07T09:30:50;15.03;;;10.03;;
36817;SDS011;22761;51.542;16.450;2022-12-07T09:33:17;18.57;;;10.03;;
36817;SDS011;22761;51.542;16.450;2022-12-07T09:35:49;12.67;;;9.10;;
36817;SDS011;22761;51.542;16.450;2022-12-07T09:38:18;15.90;;;8.83;;
36817;SDS011;22761;51.542;16.450;2022-12-07T09:40:46;12.57;;;8.80;;
36817;SDS011;22761;51.542;16.450;2022-12-07T09:43:18;11.27;;;8.30;;
36817;SDS011;22761;51.542;16.450;2022-12-07T09:45:51;11.63;;;7.73;;
36817;SDS011;22761;51.542;16.450;2022-12-07T09:48:21;11.70;;;7.83;;
36817;SDS011;22761;51.542;16.450;2022-12-07T09:50:57;10.73;;;7.13;;
36817;SDS011;22761;51.542;16.450;2022-12-07T09:55:56;11.17;;;7.13;;
36817;SDS011;22761;51.542;16.450;2022-12-07T09:58:24;12.97;;;7.60;;
36817;SDS011;22761;51.542;16.450;2022-12-07T10:00:57;10.93;;;7.80;;
36817;SDS011;22761;51.542;16.450;2022-12-07T10:03:28;10.10;;;7.53;;
36817;SDS011;22761;51.542;16.450;2022-12-07T10:05:55;10.13;;;6.87;;
36817;SDS011;22761;51.542;16.450;2022-12-07T10:08:24;10.57;;;7.53;;
36817;SDS011;22761;51.542;16.450;2022-12-07T10:10:52;10.67;;;7.20;;
36817;SDS011;22761;51.542;16.450;2022-12-07T10:13:33;10.80;;;7.35;;
36817;SDS011;22761;51.542;16.450;2022-12-07T10:16:06;10.23;;;7.00;;
36817;SDS011;22761;51.542;16.450;2022-12-07T10:18:53;12.10;;;7.80;;
36817;SDS011;22761;51.542;16.450;2022-12-07T10:21:22;9.10;;;6.37;;
36817;SDS011;22761;51.542;16.450;2022-12-07T10:29:31;8.53;;;5.93;;
36817;SDS011;22761;51.542;16.450;2022-12-07T10:34:34;8.63;;;6.10;;
36817;SDS011;22761;51.542;16.450;2022-12-07T10:39:49;7.57;;;5.77;;
36817;SDS011;22761;51.542;16.450;2022-12-07T10:47:51;10.10;;;6.33;;
36817;SDS011;22761;51.542;16.450;2022-12-07T11:02:47;7.80;;;5.80;;
36817;SDS011;22761;51.542;16.450;2022-12-07T11:05:30;8.20;;;5.90;;
36817;SDS011;22761;51.542;16.450;2022-12-07T11:08:34;9.67;;;6.20;;
36817;SDS011;22761;51.542;16.450;2022-12-07T11:11:36;7.20;;;5.50;;
36817;SDS011;22761;51.542;16.450;2022-12-07T11:14:16;8.10;;;5.43;;
36817;SDS011;22761;51.542;16.450;2022-12-07T11:16:59;12.03;;;6.62;;
36817;SDS011;22761;51.542;16.450;2022-12-07T11:23:13;9.40;;;5.63;;
36817;SDS011;22761;51.542;16.450;2022-12-07T11:25:58;6.60;;;4.30;;
36817;SDS011;22761;51.542;16.450;2022-12-07T11:29:11;7.12;;;4.78;;
36817;SDS011;22761;51.542;16.450;2022-12-07T11:32:04;7.77;;;5.20;;
36817;SDS011;22761;51.542;16.450;2022-12-07T11:41:14;5.40;;;4.23;;
36817;SDS011;22761;51.542;16.450;2022-12-07T11:52:39;7.00;;;4.70;;
36817;SDS011;22761;51.542;16.450;2022-12-07T11:55:21;5.83;;;4.23;;
36817;SDS011;22761;51.542;16.450;2022-12-07T11:58:20;5.53;;;4.13;;
36817;SDS011;22761;51.542;16.450;2022-12-07T12:03:47;5.17;;;3.60;;
36817;SDS011;22761;51.542;16.450;2022-12-07T12:11:47;6.70;;;3.83;;
36817;SDS011;22761;51.542;16.450;2022-12-07T12:20:43;5.83;;;3.67;;
36817;SDS011;22761;51.542;16.450;2022-12-07T12:25:57;3.97;;;2.97;;
36817;SDS011;22761;51.542;16.450;2022-12-07T12:28:34;5.00;;;3.57;;
36817;SDS011;22761;51.542;16.450;2022-12-07T12:31:08;5.67;;;3.40;;
36817;SDS011;22761;51.542;16.450;2022-12-07T12:33:42;4.60;;;2.90;;
36817;SDS011;22761;51.542;16.450;2022-12-07T12:36:20;4.67;;;3.10;;
36817;SDS011;22761;51.542;16.450;2022-12-07T12:46:56;4.87;;;2.93;;
36817;SDS011;22761;51.542;16.450;2022-12-07T12:49:34;4.43;;;2.90;;
36817;SDS011;22761;51.542;16.450;2022-12-07T12:55:12;3.93;;;3.07;;
36817;SDS011;22761;51.542;16.450;2022-12-07T12:58:21;4.40;;;3.10;;
36817;SDS011;22761;51.542;16.450;2022-12-07T13:00:37;7.80;;;3.60;;
36817;SDS011;22761;51.542;16.450;2022-12-07T13:03:05;5.27;;;3.33;;
36817;SDS011;22761;51.542;16.450;2022-12-07T13:08:53;6.67;;;3.00;;
36817;SDS011;22761;51.542;16.450;2022-12-07T13:11:33;6.67;;;3.30;;
36817;SDS011;22761;51.542;16.450;2022-12-07T13:17:13;3.67;;;2.70;;
36817;SDS011;22761;51.542;16.450;2022-12-07T13:20:05;5.60;;;3.33;;
36817;SDS011;22761;51.542;16.450;2022-12-07T13:27:51;5.43;;;3.00;;
36817;SDS011;22761;51.542;16.450;2022-12-07T13:30:46;6.67;;;3.43;;
36817;SDS011;22761;51.542;16.450;2022-12-07T13:33:34;5.90;;;3.00;;
36817;SDS011;22761;51.542;16.450;2022-12-07T13:36:02;5.20;;;3.10;;
36817;SDS011;22761;51.542;16.450;2022-12-07T13:38:32;3.83;;;2.93;;
36817;SDS011;22761;51.542;16.450;2022-12-07T13:43:49;6.67;;;3.30;;
36817;SDS011;22761;51.542;16.450;2022-12-07T13:46:23;3.97;;;2.83;;
36817;SDS011;22761;51.542;16.450;2022-12-07T13:48:52;5.43;;;2.80;;
36817;SDS011;22761;51.542;16.450;2022-12-07T13:51:27;4.30;;;2.53;;
36817;SDS011;22761;51.542;16.450;2022-12-07T13:53:56;5.60;;;2.97;;
36817;SDS011;22761;51.542;16.450;2022-12-07T13:56:33;5.87;;;3.00;;
36817;SDS011;22761;51.542;16.450;2022-12-07T13:59:04;5.70;;;3.30;;
36817;SDS011;22761;51.542;16.450;2022-12-07T14:01:36;6.13;;;2.83;;
36817;SDS011;22761;51.542;16.450;2022-12-07T14:07:22;5.23;;;3.33;;
36817;SDS011;22761;51.542;16.450;2022-12-07T14:09:59;5.77;;;2.87;;
36817;SDS011;22761;51.542;16.450;2022-12-07T14:12:30;4.87;;;2.97;;
36817;SDS011;22761;51.542;16.450;2022-12-07T14:15:00;5.42;;;3.08;;
36817;SDS011;22761;51.542;16.450;2022-12-07T14:17:30;5.07;;;3.07;;
36817;SDS011;22761;51.542;16.450;2022-12-07T14:19:58;6.80;;;3.07;;
36817;SDS011;22761;51.542;16.450;2022-12-07T14:22:34;6.03;;;3.33;;
36817;SDS011;22761;51.542;16.450;2022-12-07T14:25:26;8.70;;;3.23;;
36817;SDS011;22761;51.542;16.450;2022-12-07T14:27:57;3.87;;;2.93;;
36817;SDS011;22761;51.542;16.450;2022-12-07T14:30:28;10.23;;;3.40;;
36817;SDS011;22761;51.542;16.450;2022-12-07T14:33:02;5.07;;;2.87;;
36817;SDS011;22761;51.542;16.450;2022-12-07T14:35:31;4.77;;;3.30;;
36817;SDS011;22761;51.542;16.450;2022-12-07T14:38:00;5.73;;;2.87;;
36817;SDS011;22761;51.542;16.450;2022-12-07T14:40:27;6.13;;;3.10;;
36817;SDS011;22761;51.542;16.450;2022-12-07T14:43:08;3.80;;;2.63;;
36817;SDS011;22761;51.542;16.450;2022-12-07T14:45:43;5.50;;;3.13;;
36817;SDS011;22761;51.542;16.450;2022-12-07T14:48:12;5.50;;;3.00;;
36817;SDS011;22761;51.542;16.450;2022-12-07T14:50:46;3.83;;;2.73;;
36817;SDS011;22761;51.542;16.450;2022-12-07T14:53:21;7.83;;;2.93;;
36817;SDS011;22761;51.542;16.450;2022-12-07T14:55:52;4.63;;;2.07;;
36817;SDS011;22761;51.542;16.450;2022-12-07T14:58:20;2.93;;;1.77;;
36817;SDS011;22761;51.542;16.450;2022-12-07T15:00:47;5.10;;;2.23;;
36817;SDS011;22761;51.542;16.450;2022-12-07T15:03:15;3.53;;;2.00;;
36817;SDS011;22761;51.542;16.450;2022-12-07T15:05:44;3.17;;;1.47;;
36817;SDS011;22761;51.542;16.450;2022-12-07T15:08:12;2.77;;;1.43;;
36817;SDS011;22761;51.542;16.450;2022-12-07T15:10:39;3.70;;;1.70;;
36817;SDS011;22761;51.542;16.450;2022-12-07T15:13:08;3.03;;;1.30;;
36817;SDS011;22761;51.542;16.450;2022-12-07T15:15:54;2.27;;;1.50;;
36817;SDS011;22761;51.542;16.450;2022-12-07T15:18:22;4.87;;;1.30;;
36817;SDS011;22761;51.542;16.450;2022-12-07T15:20:50;3.70;;;1.40;;
36817;SDS011;22761;51.542;16.450;2022-12-07T15:23:17;1.90;;;1.20;;
36817;SDS011;22761;51.542;16.450;2022-12-07T15:25:48;2.80;;;1.27;;
36817;SDS011;22761;51.542;16.450;2022-12-07T15:28:16;4.10;;;1.30;;
36817;SDS011;22761;51.542;16.450;2022-12-07T15:30:43;3.30;;;1.20;;
36817;SDS011;22761;51.542;16.450;2022-12-07T15:33:12;3.63;;;1.33;;
36817;SDS011;22761;51.542;16.450;2022-12-07T15:35:44;2.73;;;1.20;;
36817;SDS011;22761;51.542;16.450;2022-12-07T15:40:37;3.43;;;1.10;;
36817;SDS011;22761;51.542;16.450;2022-12-07T15:43:07;2.60;;;1.10;;
36817;SDS011;22761;51.542;16.450;2022-12-07T15:45:37;2.50;;;1.33;;
36817;SDS011;22761;51.542;16.450;2022-12-07T15:48:05;4.17;;;1.20;;
36817;SDS011;22761;51.542;16.450;2022-12-07T15:50:32;4.80;;;1.97;;
36817;SDS011;22761;51.542;16.450;2022-12-07T15:52:59;3.07;;;1.63;;
36817;SDS011;22761;51.542;16.450;2022-12-07T15:55:27;4.70;;;1.93;;
36817;SDS011;22761;51.542;16.450;2022-12-07T15:57:54;4.10;;;2.00;;
36817;SDS011;22761;51.542;16.450;2022-12-07T16:00:22;5.17;;;2.20;;
36817;SDS011;22761;51.542;16.450;2022-12-07T16:02:49;5.17;;;1.87;;
36817;SDS011;22761;51.542;16.450;2022-12-07T16:05:16;5.57;;;2.20;;
36817;SDS011;22761;51.542;16.450;2022-12-07T16:07:43;4.33;;;2.20;;
36817;SDS011;22761;51.542;16.450;2022-12-07T16:10:13;6.83;;;2.97;;
36817;SDS011;22761;51.542;16.450;2022-12-07T16:12:40;4.33;;;2.80;;
36817;SDS011;22761;51.542;16.450;2022-12-07T16:15:07;9.40;;;3.50;;
36817;SDS011;22761;51.542;16.450;2022-12-07T16:17:36;6.77;;;3.93;;
36817;SDS011;22761;51.542;16.450;2022-12-07T16:20:03;6.80;;;3.80;;
36817;SDS011;22761;51.542;16.450;2022-12-07T16:22:33;5.87;;;3.90;;
36817;SDS011;22761;51.542;16.450;2022-12-07T16:25:00;7.40;;;3.77;;
36817;SDS011;22761;51.542;16.450;2022-12-07T16:27:27;6.37;;;3.90;;
36817;SDS011;22761;51.542;16.450;2022-12-07T16:29:54;10.13;;;3.70;;
36817;SDS011;22761;51.542;16.450;2022-12-07T16:32:22;9.53;;;5.40;;
36817;SDS011;22761;51.542;16.450;2022-12-07T16:34:49;10.40;;;5.30;;
36817;SDS011;22761;51.542;16.450;2022-12-07T16:37:17;9.13;;;4.93;;
36817;SDS011;22761;51.542;16.450;2022-12-07T16:39:44;9.33;;;5.47;;
36817;SDS011;22761;51.542;16.450;2022-12-07T16:42:12;9.33;;;5.13;;
36817;SDS011;22761;51.542;16.450;2022-12-07T16:44:40;9.50;;;5.60;;
36817;SDS011;22761;51.542;16.450;2022-12-07T16:47:08;8.90;;;5.00;;
36817;SDS011;22761;51.542;16.450;2022-12-07T16:49:35;12.10;;;5.80;;
36817;SDS011;22761;51.542;16.450;2022-12-07T16:52:02;11.27;;;5.73;;
36817;SDS011;22761;51.542;16.450;2022-12-07T16:54:31;9.57;;;5.00;;
36817;SDS011;22761;51.542;16.450;2022-12-07T16:56:59;10.40;;;4.70;;
36817;SDS011;22761;51.542;16.450;2022-12-07T16:59:26;9.30;;;4.13;;
36817;SDS011;22761;51.542;16.450;2022-12-07T17:01:53;7.47;;;4.60;;
36817;SDS011;22761;51.542;16.450;2022-12-07T17:04:22;15.90;;;6.57;;
36817;SDS011;22761;51.542;16.450;2022-12-07T17:06:49;11.60;;;6.63;;
36817;SDS011;22761;51.542;16.450;2022-12-07T17:09:17;15.57;;;6.27;;
36817;SDS011;22761;51.542;16.450;2022-12-07T17:11:45;10.70;;;5.37;;
36817;SDS011;22761;51.542;16.450;2022-12-07T17:14:12;10.27;;;4.60;;